NCAR-RAP Real-Time Weather Data

Output produced by METARs form (14 October 2019  22:33 UTC)
found at http://weather.rap.ucar.edu/surface/
 
KTUS 142153Z VRB05KT 10SM FEW100 29/06 A2991 RMK AO2 SLP086 T02940061
KTUS 142053Z 26004KT 10SM FEW090 28/08 A2992 RMK AO2 SLP090 T02830083 56025
KTUS 142017Z VRB04KT 10SM CLR 29/09 A2993 RMK AO2 T02890094
KTUS 141953Z VRB05KT 10SM FEW070 29/09 A2994 RMK AO2 SLP097 T02890094
KTUS 141853Z VRB04KT 10SM CLR 28/12 A2997 RMK AO2 SLP108 T02780117
KTUS 141753Z VRB03KT 10SM CLR 26/09 A3000 RMK AO2 SLP117 T02610094 10261 20167 58006
KTUS 141653Z 17004KT 10SM SCT070 24/11 A3001 RMK AO2 SLP125 T02390106
KTUS 141604Z 12006KT 10SM CLR 22/09 A3002 RMK AO2 T02220094
KTUS 141553Z 15007KT 10SM SCT080 22/09 A3002 RMK AO2 SLP129 T02220094
KTUS 141455Z 14007KT 10SM SCT080 19/08 A3001 RMK AO2 T01940078
KTUS 141453Z 15007KT 10SM OVC080 19/08 A3001 RMK AO2 SLP127 T01940078 53012
KTUS 141353Z 13007KT 10SM BKN080 18/07 A2999 RMK AO2 SLP120 T01780067
KTUS 141253Z 13005KT 10SM OVC080 17/06 A2999 RMK AO2 SLP118 T01720061
KTUS 141153Z 12005KT 10SM CLR 17/06 A2998 RMK AO2 SLP111 T01720056 10211 20167 53003
KTUS 141053Z 13005KT 10SM CLR 17/04 A2996 RMK AO2 SLP106 T01720039
KTUS 140953Z 16005KT 10SM CLR 18/04 A2997 RMK AO2 SLP106 T01780044
KTUS 140853Z 17005KT 10SM CLR 18/04 A2997 RMK AO2 SLP106 T01830039 50003
KTUS 140753Z 16005KT 10SM CLR 19/02 A2997 RMK AO2 SLP108 T01890022
KTUS 140653Z 14009KT 10SM CLR 19/01 A2997 RMK AO2 SLP108 T01890011 403170144
KTUS 140553Z 14005KT 10SM CLR 21/01 A2996 RMK AO2 SLP104 T02110006 10306 20206 51008
KTUS 140453Z 11006KT 10SM CLR 22/01 A2996 RMK AO2 SLP104 T02170006
KTUS 140353Z 16007KT 10SM CLR 22/01 A2995 RMK AO2 SLP104 T02170011
KTUS 140253Z 20006KT 10SM CLR 24/01 A2994 RMK AO2 SLP101 T02390006 53014
KTUS 140153Z 22005KT 10SM CLR 26/00 A2992 RMK AO2 SLP094 T02610000
KTUS 140053Z 24006KT 10SM CLR 28/M01 A2990 RMK AO2 SLP087 T02831011
KTUS 132353Z 23009KT 10SM CLR 31/M03 A2989 RMK AO2 SLP083 T03061028 10317 20267 56006
KTUS 132253Z 17005G15KT 10SM CLR 31/M03 A2990 RMK AO2 SLP084 T03111033
KTUS 132153Z 19010G15KT 10SM CLR 31/M03 A2990 RMK AO2 SLP084 T03111028
KTUS 132053Z 18007KT 150V210 10SM CLR 31/M05 A2991 RMK AO2 SLP089 T03111050 58028
KTUS 131953Z 13007KT 090V170 10SM CLR 30/01 A2994 RMK AO2 SLP098 T03000011
KTUS 131853Z 24006KT 10SM CLR 29/01 A2998 RMK AO2 SLP109 T02890011
KTUS 131753Z 13004KT 10SM CLR 27/02 A3000 RMK AO2 SLP120 T02670022 10267 20144 58001
KTUS 131653Z 18005KT 10SM CLR 25/02 A3001 RMK AO2 SLP123 T02500022
KTUS 131553Z 15010KT 10SM CLR 21/02 A3001 RMK AO2 SLP126 T02110022
KTUS 131453Z 14011KT 10SM CLR 17/02 A3000 RMK AO2 SLP126 T01670022 53012
KTUS 131353Z 14010KT 10SM CLR 15/01 A2998 RMK AO2 SLP119 T01500011
KTUS 131253Z 15008KT 10SM CLR 14/01 A2997 RMK AO2 SLP114 T01440011
KTUS 131153Z 15008KT 10SM CLR 14/01 A2997 RMK AO2 SLP110 T01440006 10189 20144 55002
KTUS 131053Z 15008KT 10SM CLR 15/01 A2996 RMK AO2 SLP108 T01500006
KTUS 130953Z 16005KT 10SM CLR 15/00 A2996 RMK AO2 SLP107 T01500000
KTUS 130853Z 16006KT 10SM CLR 16/00 A2997 RMK AO2 SLP110 T01560000 52003
KTUS 130753Z 15006KT 10SM CLR 17/M01 A2997 RMK AO2 SLP108 T01721006
KTUS 130653Z AUTO 16008KT 10SM CLR 18/M01 A2997 RMK AO2 SLP107 T01831006 403170178
KTUS 130553Z 16004KT 10SM CLR 19/M01 A2996 RMK AO2 SLP107 T01891006 10300 20189 51009
KTUS 130453Z 18004KT 10SM CLR 20/M01 A2996 RMK AO2 SLP105 T02001006
KTUS 130353Z 25006KT 10SM CLR 22/M01 A2995 RMK AO2 SLP102 T02171006
KTUS 130253Z 26005KT 10SM CLR 23/M01 A2993 RMK AO2 SLP098 T02331006 53016
KTUS 130153Z 26004KT 10SM CLR 26/M02 A2991 RMK AO2 SLP092 T02561017
KTUS 130053Z 28005KT 10SM CLR 28/M03 A2990 RMK AO2 SLP083 T02781028
KTUS 122353Z 29009KT 10SM CLR 30/M02 A2989 RMK AO2 SLP076 T03001022 10317 20278 56004
KTUS 122253Z 28009G15KT 10SM CLR 31/M03 A2989 RMK AO2 SLP078 T03061028